createdAt,value
2023-03-29T00:00:59.205Z,0
2023-03-29T00:02:15.498Z,0
2023-03-29T00:03:31.794Z,0
2023-03-29T00:04:48.094Z,0
2023-03-29T00:06:04.398Z,0
2023-03-29T00:07:20.679Z,0
2023-03-29T00:08:36.977Z,0
2023-03-29T00:09:53.276Z,0
2023-03-29T00:11:08.582Z,0
2023-03-29T00:12:24.879Z,0
2023-03-29T00:13:41.162Z,0
2023-03-29T00:14:57.462Z,0
2023-03-29T00:16:13.766Z,0
2023-03-29T00:17:30.059Z,0
2023-03-29T00:18:46.343Z,0
2023-03-29T00:20:02.639Z,0
2023-03-29T00:21:17.967Z,0
2023-03-29T00:22:33.259Z,0
2023-03-29T00:23:49.557Z,0
2023-03-29T00:25:05.861Z,0
2023-03-29T00:26:22.143Z,0
2023-03-29T00:27:38.443Z,0
2023-03-29T00:28:54.739Z,0
2023-03-29T00:30:11.030Z,0
2023-03-29T00:31:27.331Z,0
2023-03-29T00:32:43.615Z,0
2023-03-29T00:33:59.915Z,0
2023-03-29T00:35:16.221Z,0
2023-03-29T00:36:32.513Z,0
2023-03-29T00:37:48.811Z,0
2023-03-29T00:39:04.127Z,0
2023-03-29T00:40:20.406Z,0
2023-03-29T00:41:36.703Z,0
2023-03-29T00:42:53.004Z,0
2023-03-29T00:44:09.287Z,0
2023-03-29T00:45:25.594Z,0
2023-03-29T00:46:41.885Z,0
2023-03-29T00:47:57.196Z,0
2023-03-29T00:49:12.508Z,0
2023-03-29T00:50:27.836Z,0
2023-03-29T00:51:43.133Z,0
2023-03-29T00:52:59.432Z,0
2023-03-29T00:54:15.722Z,0
2023-03-29T00:55:32.014Z,0
2023-03-29T00:56:48.305Z,0
2023-03-29T00:58:04.611Z,0
2023-03-29T00:59:20.895Z,0
2023-03-29T01:00:37.189Z,0
2023-03-29T01:01:53.490Z,0
2023-03-29T01:03:09.781Z,0
2023-03-29T01:04:26.087Z,0
2023-03-29T01:05:42.366Z,0
2023-03-29T01:06:58.661Z,0
2023-03-29T01:08:13.991Z,0
2023-03-29T01:09:30.276Z,0
2023-03-29T01:10:46.559Z,0
2023-03-29T01:12:02.864Z,0
2023-03-29T01:13:19.167Z,0
2023-03-29T01:14:35.449Z,0
2023-03-29T01:15:51.755Z,0
2023-03-29T01:17:07.063Z,0
2023-03-29T01:18:22.371Z,0
2023-03-29T01:19:38.662Z,0
2023-03-29T01:20:54.963Z,0
2023-03-29T01:22:11.256Z,0
2023-03-29T01:23:27.548Z,0
2023-03-29T01:24:43.855Z,0
2023-03-29T01:26:00.135Z,0
2023-03-29T01:27:16.425Z,0
2023-03-29T01:28:32.718Z,0
2023-03-29T01:29:49.017Z,0
2023-03-29T01:31:05.322Z,0
2023-03-29T01:32:21.602Z,0
2023-03-29T01:34:54.197Z,0
2023-03-29T01:36:09.501Z,0
2023-03-29T01:37:25.795Z,0
2023-03-29T01:38:42.093Z,0
2023-03-29T01:39:58.403Z,0
2023-03-29T01:41:14.691Z,0
2023-03-29T01:42:30.976Z,0
2023-03-29T01:43:47.285Z,0
2023-03-29T01:45:02.586Z,0
2023-03-29T01:46:17.911Z,0
2023-03-29T01:47:33.221Z,0
2023-03-29T01:48:48.528Z,0
2023-03-29T01:50:03.849Z,0
2023-03-29T01:51:19.155Z,0
2023-03-29T01:52:35.447Z,0
2023-03-29T01:53:50.776Z,0
2023-03-29T01:55:06.076Z,0
2023-03-29T01:56:22.366Z,0
2023-03-29T01:57:38.660Z,0
2023-03-29T01:58:54.955Z,0
2023-03-29T02:00:11.263Z,0
2023-03-29T02:01:27.541Z,0
2023-03-29T02:02:43.834Z,0
2023-03-29T02:04:00.139Z,0
2023-03-29T02:05:16.424Z,0
2023-03-29T02:06:32.720Z,0
2023-03-29T02:07:49.023Z,0
2023-03-29T02:09:05.313Z,0
2023-03-29T02:10:21.610Z,0
2023-03-29T02:11:36.923Z,0
2023-03-29T02:12:53.220Z,0
2023-03-29T02:14:09.503Z,0
2023-03-29T02:15:25.797Z,0
2023-03-29T02:16:42.108Z,0
2023-03-29T02:17:58.402Z,0
2023-03-29T02:19:14.693Z,0
2023-03-29T02:20:30.001Z,0
2023-03-29T02:21:45.314Z,0
2023-03-29T02:23:01.615Z,0
2023-03-29T02:24:16.920Z,0
2023-03-29T02:25:32.243Z,0
2023-03-29T02:26:48.526Z,0
2023-03-29T02:28:04.816Z,0
2023-03-29T02:29:21.114Z,0
2023-03-29T02:30:37.404Z,0
2023-03-29T02:31:53.698Z,0
2023-03-29T02:33:09.996Z,0
2023-03-29T02:34:26.287Z,0
2023-03-29T02:35:42.583Z,0
2023-03-29T02:36:58.887Z,0
2023-03-29T02:38:15.177Z,0
2023-03-29T02:39:31.476Z,0
2023-03-29T02:40:47.775Z,0
2023-03-29T02:42:03.075Z,0
2023-03-29T02:43:19.369Z,0
2023-03-29T02:44:35.664Z,0
2023-03-29T02:45:51.960Z,0
2023-03-29T02:47:08.263Z,0
2023-03-29T02:48:24.544Z,0
2023-03-29T02:49:40.851Z,0
2023-03-29T02:50:56.152Z,0
2023-03-29T02:52:11.471Z,0
2023-03-29T02:53:26.786Z,0
2023-03-29T02:54:42.100Z,0
2023-03-29T02:55:58.387Z,0
2023-03-29T02:57:14.675Z,0
2023-03-29T02:58:30.975Z,0
2023-03-29T02:59:47.278Z,0
2023-03-29T03:01:03.570Z,0
2023-03-29T03:02:19.861Z,0
2023-03-29T03:03:36.164Z,0
2023-03-29T03:04:52.448Z,0
2023-03-29T03:06:08.745Z,0
2023-03-29T03:07:25.042Z,0
2023-03-29T03:08:41.329Z,0
2023-03-29T03:09:57.639Z,0
2023-03-29T03:11:12.938Z,0
2023-03-29T03:12:29.231Z,0
2023-03-29T03:13:45.519Z,0
2023-03-29T03:15:01.818Z,0
2023-03-29T03:16:18.115Z,0
2023-03-29T03:17:34.405Z,0
2023-03-29T03:18:50.711Z,0
2023-03-29T03:20:06.012Z,0
2023-03-29T03:21:21.338Z,0
2023-03-29T03:22:36.644Z,0
2023-03-29T03:23:51.962Z,0
2023-03-29T03:25:08.249Z,0
2023-03-29T03:26:24.548Z,0
2023-03-29T03:27:40.834Z,0
2023-03-29T03:28:57.129Z,0
2023-03-29T03:30:13.426Z,0
2023-03-29T03:31:29.731Z,0
2023-03-29T03:32:46.028Z,0
2023-03-29T03:34:02.314Z,0
2023-03-29T03:35:18.605Z,0
2023-03-29T03:36:34.900Z,0
2023-03-29T03:37:51.189Z,0
2023-03-29T03:39:07.494Z,0
2023-03-29T03:40:22.797Z,0
2023-03-29T03:41:39.095Z,0
2023-03-29T03:42:55.387Z,0
2023-03-29T03:44:11.679Z,0
2023-03-29T03:45:27.989Z,0
2023-03-29T03:46:44.276Z,0
2023-03-29T03:48:00.568Z,0
2023-03-29T03:49:15.891Z,0
2023-03-29T03:50:31.189Z,0
2023-03-29T03:51:46.511Z,0
2023-03-29T03:53:01.820Z,0
2023-03-29T03:54:18.124Z,0
2023-03-29T03:55:34.409Z,0
2023-03-29T03:56:50.706Z,0
2023-03-29T03:58:07.002Z,0
2023-03-29T03:59:23.302Z,0
2023-03-29T04:00:39.584Z,0
2023-03-29T04:01:55.877Z,0
2023-03-29T04:03:12.179Z,0
2023-03-29T04:04:28.472Z,0
2023-03-29T04:07:01.064Z,0
2023-03-29T04:08:17.361Z,0
2023-03-29T04:09:32.660Z,0
2023-03-29T04:10:48.964Z,0
2023-03-29T04:12:05.250Z,0
2023-03-29T04:13:21.539Z,0
2023-03-29T04:14:37.840Z,0
2023-03-29T04:15:54.136Z,0
2023-03-29T04:17:10.426Z,0
2023-03-29T04:18:26.735Z,0
2023-03-29T04:19:42.042Z,0
2023-03-29T04:20:57.346Z,0
2023-03-29T04:22:12.614Z,0
2023-03-29T04:23:27.917Z,0
2023-03-29T04:24:44.177Z,0
2023-03-29T04:26:00.414Z,0
2023-03-29T04:27:16.712Z,0
2023-03-29T04:28:32.967Z,0
2023-03-29T04:29:49.201Z,0
2023-03-29T04:31:05.504Z,0
2023-03-29T04:32:21.749Z,0
2023-03-29T04:33:37.986Z,0
2023-03-29T04:34:54.229Z,0
2023-03-29T04:36:10.481Z,0
2023-03-29T04:37:26.706Z,0
2023-03-29T04:38:42.964Z,0
2023-03-29T04:39:58.205Z,0
2023-03-29T04:41:14.448Z,0
2023-03-29T04:42:30.693Z,0
2023-03-29T04:43:46.933Z,0
2023-03-29T04:45:03.167Z,0
2023-03-29T04:46:19.405Z,0
2023-03-29T04:47:35.645Z,0
2023-03-29T04:48:50.931Z,0
2023-03-29T04:50:06.168Z,0
2023-03-29T04:51:21.443Z,0
2023-03-29T04:52:36.688Z,0
2023-03-29T04:53:51.950Z,0
2023-03-29T04:55:08.183Z,0
2023-03-29T04:56:24.438Z,0
2023-03-29T04:57:40.669Z,0
2023-03-29T04:58:56.911Z,0
2023-03-29T05:00:13.148Z,0
2023-03-29T05:01:29.394Z,0
2023-03-29T05:02:45.635Z,0
2023-03-29T05:04:01.877Z,0
2023-03-29T05:05:18.125Z,0
2023-03-29T05:06:34.362Z,5
2023-03-29T05:07:50.605Z,5
2023-03-29T05:09:06.833Z,5
2023-03-29T05:10:22.087Z,5
2023-03-29T05:11:38.344Z,5
2023-03-29T05:12:54.571Z,5
2023-03-29T05:14:10.815Z,5
2023-03-29T05:15:27.064Z,5
2023-03-29T05:16:43.307Z,11
2023-03-29T05:17:58.555Z,11
2023-03-29T05:19:13.806Z,11
2023-03-29T05:20:29.076Z,11
2023-03-29T05:21:44.327Z,11
2023-03-29T05:23:00.568Z,11
2023-03-29T05:24:16.820Z,11
2023-03-29T05:25:33.061Z,11
2023-03-29T05:26:49.290Z,16
2023-03-29T05:28:05.535Z,16
2023-03-29T05:29:21.771Z,16
2023-03-29T05:30:38.014Z,16
2023-03-29T05:31:54.248Z,16
2023-03-29T05:33:10.506Z,16
2023-03-29T05:34:26.745Z,16
2023-03-29T05:35:42.968Z,22
2023-03-29T05:36:59.225Z,22
2023-03-29T05:38:14.485Z,22
2023-03-29T05:39:30.707Z,22
2023-03-29T05:40:46.959Z,22
2023-03-29T05:42:03.202Z,22
2023-03-29T05:43:19.429Z,22
2023-03-29T05:44:35.684Z,28
2023-03-29T05:45:51.912Z,28
2023-03-29T05:47:07.180Z,28
2023-03-29T05:48:22.432Z,28
2023-03-29T05:49:38.672Z,28
2023-03-29T05:50:54.916Z,28
2023-03-29T05:52:11.160Z,28
2023-03-29T05:53:27.391Z,28
2023-03-29T05:54:43.641Z,22
2023-03-29T05:55:59.887Z,22
2023-03-29T05:57:16.118Z,22
2023-03-29T05:58:32.360Z,28
2023-03-29T05:59:48.607Z,28
2023-03-29T06:01:04.832Z,28
2023-03-29T06:02:21.091Z,28
2023-03-29T06:03:37.316Z,28
2023-03-29T06:04:52.583Z,28
2023-03-29T06:06:08.824Z,28
2023-03-29T06:07:25.062Z,28
2023-03-29T06:08:41.307Z,28
2023-03-29T06:09:57.539Z,33
2023-03-29T06:11:13.776Z,33
2023-03-29T06:12:30.018Z,33
2023-03-29T06:13:45.276Z,33
2023-03-29T06:15:00.549Z,33
2023-03-29T06:16:16.781Z,39
2023-03-29T06:17:33.020Z,39
2023-03-29T06:18:49.259Z,39
2023-03-29T06:20:05.509Z,45
2023-03-29T06:21:21.738Z,45
2023-03-29T06:22:37.985Z,45
2023-03-29T06:23:54.218Z,45
2023-03-29T06:25:10.455Z,50
2023-03-29T06:26:26.707Z,45
2023-03-29T06:27:42.950Z,45
2023-03-29T06:28:59.175Z,39
2023-03-29T06:30:15.417Z,39
2023-03-29T06:31:30.676Z,33
2023-03-29T06:32:46.921Z,33
2023-03-29T06:34:03.161Z,28
2023-03-29T06:35:19.396Z,28
2023-03-29T06:36:35.636Z,28
2023-03-29T06:37:51.880Z,28
2023-03-29T06:39:08.122Z,28
2023-03-29T06:40:23.376Z,28
2023-03-29T06:41:38.644Z,33
2023-03-29T06:42:54.879Z,33
2023-03-29T06:44:11.122Z,33
2023-03-29T06:45:27.369Z,33
2023-03-29T06:46:43.609Z,39
2023-03-29T06:47:59.852Z,39
2023-03-29T06:49:16.079Z,45
2023-03-29T06:50:32.320Z,45
2023-03-29T06:51:48.571Z,50
2023-03-29T06:53:04.808Z,50
2023-03-29T06:54:21.041Z,50
2023-03-29T06:55:37.290Z,56
2023-03-29T06:56:53.527Z,56
2023-03-29T06:58:09.882Z,50
2023-03-29T06:59:26.128Z,45
2023-03-29T07:00:42.374Z,45
2023-03-29T07:01:58.601Z,45
2023-03-29T07:03:14.841Z,45
2023-03-29T07:04:31.096Z,50
2023-03-29T07:05:47.334Z,50
2023-03-29T07:07:02.592Z,50
2023-03-29T07:08:17.844Z,56
2023-03-29T07:09:34.083Z,61
2023-03-29T07:10:50.324Z,67
2023-03-29T07:12:06.562Z,67
2023-03-29T07:13:22.816Z,73
2023-03-29T07:14:39.051Z,78
2023-03-29T07:15:55.287Z,78
2023-03-29T07:17:11.524Z,78
2023-03-29T07:18:27.779Z,78
2023-03-29T07:19:44.015Z,78
2023-03-29T07:21:00.251Z,78
2023-03-29T07:22:16.495Z,78
2023-03-29T07:23:32.738Z,78
2023-03-29T07:24:47.985Z,78
2023-03-29T07:26:04.230Z,78
2023-03-29T07:27:20.476Z,78
2023-03-29T07:28:36.710Z,78
2023-03-29T07:29:52.953Z,84
2023-03-29T07:31:09.191Z,84
2023-03-29T07:32:25.443Z,84
2023-03-29T07:33:41.668Z,90
2023-03-29T07:34:57.913Z,90
2023-03-29T07:36:14.145Z,90
2023-03-29T07:37:30.388Z,90
2023-03-29T07:38:46.637Z,90
2023-03-29T07:40:02.867Z,90
2023-03-29T07:41:18.128Z,95
2023-03-29T07:42:34.370Z,101
2023-03-29T07:43:50.618Z,106
2023-03-29T07:45:06.846Z,112
2023-03-29T07:46:23.102Z,112
2023-03-29T07:47:39.341Z,112
2023-03-29T07:48:55.564Z,112
2023-03-29T07:50:11.804Z,112
2023-03-29T07:51:28.051Z,118
2023-03-29T07:52:44.297Z,118
2023-03-29T07:54:00.532Z,112
2023-03-29T07:55:16.781Z,112
2023-03-29T07:56:33.008Z,106
2023-03-29T07:57:48.280Z,106
2023-03-29T07:59:04.516Z,106
2023-03-29T08:00:20.751Z,101
2023-03-29T08:01:36.997Z,101
2023-03-29T08:02:53.224Z,101
2023-03-29T08:04:09.481Z,95
2023-03-29T08:05:25.720Z,95
2023-03-29T08:06:41.947Z,101
2023-03-29T08:07:58.186Z,101
2023-03-29T08:09:14.433Z,101
2023-03-29T08:10:30.669Z,95
2023-03-29T08:11:46.921Z,95
2023-03-29T08:13:03.149Z,95
2023-03-29T08:14:18.410Z,95
2023-03-29T08:15:34.652Z,95
2023-03-29T08:16:50.887Z,95
2023-03-29T08:18:07.125Z,95
2023-03-29T08:19:23.365Z,101
2023-03-29T08:20:39.605Z,101
2023-03-29T08:21:55.000Z,101
2023-03-29T08:23:12.097Z,101
2023-03-29T08:24:28.337Z,106
2023-03-29T08:25:44.565Z,106
2023-03-29T08:27:00.817Z,112
2023-03-29T08:28:17.059Z,118
2023-03-29T08:29:33.286Z,118
2023-03-29T08:30:48.544Z,123
2023-03-29T08:32:04.786Z,129
2023-03-29T08:33:21.026Z,135
2023-03-29T08:34:37.280Z,140
2023-03-29T08:35:53.508Z,140
2023-03-29T08:37:09.756Z,146
2023-03-29T08:38:25.989Z,151
2023-03-29T08:39:42.230Z,157
2023-03-29T08:40:58.466Z,151
2023-03-29T08:42:14.709Z,151
2023-03-29T08:43:30.949Z,151
2023-03-29T08:44:47.201Z,157
2023-03-29T08:46:03.422Z,151
2023-03-29T08:47:18.692Z,151
2023-03-29T08:48:34.939Z,151
2023-03-29T08:49:51.162Z,151
2023-03-29T08:51:07.414Z,157
2023-03-29T08:52:23.650Z,168
2023-03-29T08:53:39.884Z,174
2023-03-29T08:54:56.140Z,180
2023-03-29T08:56:12.367Z,185
2023-03-29T08:57:28.607Z,196
2023-03-29T08:58:44.848Z,208
2023-03-29T09:00:01.089Z,219
2023-03-29T09:01:17.320Z,230
2023-03-29T09:02:33.571Z,241
2023-03-29T09:03:48.824Z,253
2023-03-29T09:05:05.076Z,270
2023-03-29T09:06:21.313Z,360
2023-03-29T09:07:37.558Z,303
2023-03-29T09:08:52.808Z,270
2023-03-29T09:10:09.044Z,241
2023-03-29T09:11:25.300Z,225
2023-03-29T09:12:41.539Z,219
2023-03-29T09:13:57.772Z,219
2023-03-29T09:15:14.016Z,213
2023-03-29T09:16:30.249Z,202
2023-03-29T09:17:46.485Z,185
2023-03-29T09:19:02.727Z,180
2023-03-29T09:20:18.962Z,168
2023-03-29T09:21:35.208Z,163
2023-03-29T09:22:51.447Z,151
2023-03-29T09:24:07.685Z,140
2023-03-29T09:25:22.942Z,129
2023-03-29T09:26:39.189Z,129
2023-03-29T09:27:55.429Z,123
2023-03-29T09:29:11.672Z,118
2023-03-29T09:30:27.904Z,112
2023-03-29T09:31:44.151Z,112
2023-03-29T09:33:00.379Z,106
2023-03-29T09:34:16.639Z,106
2023-03-29T09:35:32.877Z,106
2023-03-29T09:36:49.103Z,112
2023-03-29T09:38:05.356Z,118
2023-03-29T09:39:21.594Z,123
2023-03-29T09:40:37.824Z,129
2023-03-29T09:41:53.085Z,129
2023-03-29T09:43:09.320Z,129
2023-03-29T09:44:25.561Z,135
2023-03-29T09:45:41.810Z,135
2023-03-29T09:46:58.038Z,135
2023-03-29T09:48:14.283Z,140
2023-03-29T09:49:30.524Z,146
2023-03-29T09:50:46.758Z,151
2023-03-29T09:52:03.009Z,151
2023-03-29T09:53:19.248Z,157
2023-03-29T09:54:35.486Z,157
2023-03-29T09:55:51.731Z,163
2023-03-29T09:57:07.975Z,163
2023-03-29T09:58:23.214Z,163
2023-03-29T09:59:39.476Z,163
2023-03-29T10:00:55.713Z,168
2023-03-29T10:02:11.949Z,168
2023-03-29T10:03:28.188Z,168
2023-03-29T10:04:44.426Z,174
2023-03-29T10:06:00.664Z,180
2023-03-29T10:07:16.905Z,185
2023-03-29T10:08:33.141Z,191
2023-03-29T10:09:49.375Z,196
2023-03-29T10:11:05.629Z,213
2023-03-29T10:12:21.853Z,230
2023-03-29T10:13:38.104Z,253
2023-03-29T10:14:53.364Z,275
2023-03-29T10:16:09.605Z,286
2023-03-29T10:17:25.844Z,286
2023-03-29T10:18:42.080Z,286
2023-03-29T10:19:58.320Z,286
2023-03-29T10:21:14.566Z,298
2023-03-29T10:22:30.798Z,303
2023-03-29T10:23:47.035Z,337
2023-03-29T10:25:03.285Z,416
2023-03-29T10:26:19.519Z,511
2023-03-29T10:27:35.760Z,540
2023-03-29T10:28:51.999Z,663
2023-03-29T10:30:08.234Z,607
2023-03-29T10:31:23.495Z,585
2023-03-29T10:32:39.754Z,585
2023-03-29T10:33:55.980Z,585
2023-03-29T10:35:12.209Z,624
2023-03-29T10:36:28.455Z,669
2023-03-29T10:37:44.688Z,652
2023-03-29T10:39:00.942Z,641
2023-03-29T10:40:17.171Z,568
2023-03-29T10:41:33.418Z,517
2023-03-29T10:42:49.661Z,478
2023-03-29T10:44:05.895Z,523
2023-03-29T10:45:22.129Z,500
2023-03-29T10:46:38.384Z,444
2023-03-29T10:47:54.622Z,410
2023-03-29T10:49:09.873Z,393
2023-03-29T10:50:26.108Z,393
2023-03-29T10:51:42.362Z,382
2023-03-29T10:52:58.592Z,371
2023-03-29T10:54:14.828Z,360
2023-03-29T10:55:31.068Z,371
2023-03-29T10:56:47.327Z,376
2023-03-29T10:58:03.547Z,348
2023-03-29T10:59:19.807Z,320
2023-03-29T11:00:36.029Z,303
2023-03-29T11:01:52.281Z,309
2023-03-29T11:03:08.526Z,320
2023-03-29T11:04:24.750Z,331
2023-03-29T11:05:40.019Z,320
2023-03-29T11:06:56.264Z,331
2023-03-29T11:08:12.482Z,331
2023-03-29T11:09:28.742Z,337
2023-03-29T11:10:44.972Z,331
2023-03-29T11:12:01.202Z,331
2023-03-29T11:13:17.445Z,326
2023-03-29T11:14:33.686Z,326
2023-03-29T11:15:49.939Z,315
2023-03-29T11:17:06.177Z,303
2023-03-29T11:18:22.408Z,298
2023-03-29T11:19:38.649Z,303
2023-03-29T11:20:54.894Z,315
2023-03-29T11:22:10.140Z,303
2023-03-29T11:23:26.390Z,298
2023-03-29T11:24:42.637Z,315
2023-03-29T11:25:58.858Z,331
2023-03-29T11:27:15.098Z,343
2023-03-29T11:28:31.333Z,382
2023-03-29T11:29:47.585Z,393
2023-03-29T11:31:03.817Z,382
2023-03-29T11:32:20.068Z,354
2023-03-29T11:33:36.312Z,320
2023-03-29T11:34:52.552Z,303
2023-03-29T11:36:08.777Z,286
2023-03-29T11:37:25.021Z,264
2023-03-29T11:38:40.273Z,236
2023-03-29T11:39:56.524Z,219
2023-03-29T11:41:12.769Z,213
2023-03-29T11:42:29.001Z,213
2023-03-29T11:43:45.250Z,230
2023-03-29T11:45:01.472Z,270
2023-03-29T11:46:17.718Z,326
2023-03-29T11:47:33.970Z,365
2023-03-29T11:48:50.195Z,348
2023-03-29T11:50:06.449Z,326
2023-03-29T11:51:22.675Z,331
2023-03-29T11:52:38.930Z,337
2023-03-29T11:53:55.157Z,331
2023-03-29T11:55:10.405Z,309
2023-03-29T11:56:26.653Z,298
2023-03-29T11:57:42.896Z,292
2023-03-29T11:58:59.129Z,292
2023-03-29T12:00:15.386Z,298
2023-03-29T12:01:31.605Z,292
2023-03-29T12:02:47.849Z,270
2023-03-29T12:04:04.096Z,264
2023-03-29T12:05:20.334Z,264
2023-03-29T12:06:36.572Z,258
2023-03-29T12:07:52.809Z,253
2023-03-29T12:09:09.046Z,236
2023-03-29T12:10:25.290Z,219
2023-03-29T12:11:40.550Z,213
2023-03-29T12:12:56.783Z,213
2023-03-29T12:14:13.020Z,219
2023-03-29T12:15:29.265Z,219
2023-03-29T12:16:45.505Z,219
2023-03-29T12:18:01.748Z,225
2023-03-29T12:19:17.994Z,236
2023-03-29T12:20:34.228Z,275
2023-03-29T12:21:50.462Z,326
2023-03-29T12:23:06.709Z,343
2023-03-29T12:24:22.944Z,320
2023-03-29T12:25:39.194Z,309
2023-03-29T12:26:55.425Z,309
2023-03-29T12:28:10.694Z,315
2023-03-29T12:29:26.917Z,337
2023-03-29T12:30:43.163Z,371
2023-03-29T12:31:59.396Z,382
2023-03-29T12:33:15.638Z,416
2023-03-29T12:34:31.885Z,399
2023-03-29T12:35:48.118Z,416
2023-03-29T12:37:04.363Z,421
2023-03-29T12:38:20.602Z,438
2023-03-29T12:39:36.849Z,450
2023-03-29T12:40:53.074Z,433
2023-03-29T12:42:09.321Z,450
2023-03-29T12:43:25.567Z,483
2023-03-29T12:44:40.814Z,483
2023-03-29T12:45:57.069Z,523
2023-03-29T12:47:13.302Z,556
2023-03-29T12:48:29.533Z,579
2023-03-29T12:49:45.776Z,601
2023-03-29T12:51:02.023Z,568
2023-03-29T12:52:18.266Z,562
2023-03-29T12:53:34.498Z,573
2023-03-29T12:54:50.731Z,562
2023-03-29T12:56:06.987Z,506
2023-03-29T12:57:23.218Z,500
2023-03-29T12:58:39.460Z,416
2023-03-29T12:59:55.699Z,399
2023-03-29T13:01:10.955Z,371
2023-03-29T13:02:27.193Z,320
2023-03-29T13:03:43.441Z,309
2023-03-29T13:04:59.668Z,303
2023-03-29T13:06:15.925Z,258
2023-03-29T13:07:32.145Z,230
2023-03-29T13:08:48.384Z,208
2023-03-29T13:10:04.628Z,208
2023-03-29T13:11:20.870Z,196
2023-03-29T13:12:37.103Z,185
2023-03-29T13:13:53.345Z,174
2023-03-29T13:15:09.600Z,168
2023-03-29T13:16:25.838Z,168
2023-03-29T13:17:41.085Z,174
2023-03-29T13:18:57.331Z,180
2023-03-29T13:20:13.566Z,185
2023-03-29T13:21:29.804Z,196
2023-03-29T13:22:46.042Z,202
2023-03-29T13:24:01.306Z,208
2023-03-29T13:25:17.554Z,219
2023-03-29T13:26:33.795Z,230
2023-03-29T13:27:50.030Z,236
2023-03-29T13:29:06.263Z,241
2023-03-29T13:30:22.502Z,247
2023-03-29T13:31:38.749Z,241
2023-03-29T13:32:54.981Z,236
2023-03-29T13:34:11.220Z,225
2023-03-29T13:35:27.469Z,213
2023-03-29T13:36:43.703Z,202
2023-03-29T13:37:59.943Z,208
2023-03-29T13:39:16.189Z,219
2023-03-29T13:40:31.442Z,253
2023-03-29T13:41:47.677Z,286
2023-03-29T13:43:03.929Z,309
2023-03-29T13:44:20.152Z,320
2023-03-29T13:45:36.399Z,326
2023-03-29T13:46:52.641Z,343
2023-03-29T13:48:08.884Z,343
2023-03-29T13:49:25.131Z,331
2023-03-29T13:50:41.354Z,309
2023-03-29T13:51:57.611Z,298
2023-03-29T13:53:13.833Z,281
2023-03-29T13:54:30.072Z,286
2023-03-29T13:55:46.310Z,286
2023-03-29T13:57:01.571Z,270
2023-03-29T13:58:17.815Z,258
2023-03-29T13:59:34.064Z,241
2023-03-29T14:00:50.293Z,236
2023-03-29T14:02:06.531Z,225
2023-03-29T14:03:22.782Z,213
2023-03-29T14:04:39.015Z,202
2023-03-29T14:05:55.256Z,196
2023-03-29T14:07:11.497Z,185
2023-03-29T14:08:27.727Z,168
2023-03-29T14:09:43.967Z,157
2023-03-29T14:11:00.203Z,151
2023-03-29T14:12:16.446Z,151
2023-03-29T14:13:31.708Z,151
2023-03-29T14:14:47.946Z,151
2023-03-29T14:16:04.192Z,151
2023-03-29T14:17:20.428Z,151
2023-03-29T14:18:36.664Z,157
2023-03-29T14:19:52.917Z,157
2023-03-29T14:21:09.142Z,163
2023-03-29T14:22:25.386Z,168
2023-03-29T14:23:41.623Z,174
2023-03-29T14:24:57.871Z,180
2023-03-29T14:26:14.110Z,185
2023-03-29T14:27:30.343Z,191
2023-03-29T14:28:46.583Z,191
2023-03-29T14:30:01.835Z,196
2023-03-29T14:31:18.072Z,208
2023-03-29T14:32:34.319Z,208
2023-03-29T14:33:50.567Z,208
2023-03-29T14:35:06.800Z,196
2023-03-29T14:36:23.044Z,196
2023-03-29T14:37:39.274Z,196
2023-03-29T14:38:55.511Z,191
2023-03-29T14:40:11.755Z,185
2023-03-29T14:41:27.994Z,180
2023-03-29T14:42:44.237Z,174
2023-03-29T14:44:00.480Z,174
2023-03-29T14:45:16.728Z,174
2023-03-29T14:46:31.976Z,180
2023-03-29T14:47:48.222Z,180
2023-03-29T14:49:04.460Z,180
2023-03-29T14:50:20.687Z,180
2023-03-29T14:51:36.940Z,180
2023-03-29T14:52:53.177Z,174
2023-03-29T14:54:09.416Z,174
2023-03-29T14:55:25.653Z,168
2023-03-29T14:56:41.903Z,163
2023-03-29T14:57:58.145Z,157
2023-03-29T14:59:14.369Z,151
2023-03-29T15:00:30.613Z,151
2023-03-29T15:01:46.850Z,146
2023-03-29T15:03:02.108Z,140
2023-03-29T15:04:18.352Z,140
2023-03-29T15:05:34.591Z,135
2023-03-29T15:06:50.822Z,129
2023-03-29T15:08:07.072Z,129
2023-03-29T15:09:23.303Z,118
2023-03-29T15:10:39.540Z,118
2023-03-29T15:11:55.793Z,118
2023-03-29T15:13:12.024Z,112
2023-03-29T15:14:28.262Z,112
2023-03-29T15:15:44.501Z,112
2023-03-29T15:17:00.741Z,112
2023-03-29T15:18:16.977Z,112
2023-03-29T15:19:32.252Z,112
2023-03-29T15:20:48.481Z,112
2023-03-29T15:22:04.715Z,112
2023-03-29T15:23:20.957Z,112
2023-03-29T15:24:37.204Z,106
2023-03-29T15:25:53.440Z,101
2023-03-29T15:27:09.677Z,101
2023-03-29T15:28:25.923Z,101
2023-03-29T15:29:42.170Z,101
2023-03-29T15:30:58.396Z,106
2023-03-29T15:32:14.649Z,112
2023-03-29T15:33:30.879Z,118
2023-03-29T15:34:47.125Z,129
2023-03-29T15:36:02.389Z,135
2023-03-29T15:37:18.609Z,140
2023-03-29T15:38:34.854Z,151
2023-03-29T15:39:51.091Z,157
2023-03-29T15:41:07.343Z,163
2023-03-29T15:42:23.572Z,163
2023-03-29T15:43:39.823Z,163
2023-03-29T15:44:56.068Z,151
2023-03-29T15:46:12.293Z,146
2023-03-29T15:47:28.529Z,140
2023-03-29T15:48:44.786Z,135
2023-03-29T15:50:01.019Z,135
2023-03-29T15:51:17.247Z,135
2023-03-29T15:52:32.519Z,129
2023-03-29T15:53:48.757Z,129
2023-03-29T15:55:04.986Z,129
2023-03-29T15:56:21.242Z,123
2023-03-29T15:57:37.472Z,112
2023-03-29T15:58:53.719Z,106
2023-03-29T16:00:09.946Z,101
2023-03-29T16:01:26.191Z,95
2023-03-29T16:02:42.434Z,90
2023-03-29T16:03:58.671Z,84
2023-03-29T16:05:14.913Z,78
2023-03-29T16:06:31.154Z,73
2023-03-29T16:07:47.391Z,67
2023-03-29T16:09:02.650Z,61
2023-03-29T16:10:18.889Z,61
2023-03-29T16:11:35.127Z,56
2023-03-29T16:12:51.361Z,56
2023-03-29T16:14:07.609Z,56
2023-03-29T16:15:23.840Z,56
2023-03-29T16:16:40.090Z,61
2023-03-29T16:17:56.328Z,56
2023-03-29T16:19:12.567Z,56
2023-03-29T16:20:28.797Z,50
2023-03-29T16:21:45.043Z,50
2023-03-29T16:23:01.286Z,45
2023-03-29T16:24:17.531Z,45
2023-03-29T16:25:32.790Z,39
2023-03-29T16:26:49.017Z,39
2023-03-29T16:28:05.252Z,33
2023-03-29T16:29:21.497Z,28
2023-03-29T16:30:37.742Z,28
2023-03-29T16:31:53.984Z,22
2023-03-29T16:33:10.213Z,16
2023-03-29T16:34:26.465Z,16
2023-03-29T16:35:42.688Z,16
2023-03-29T16:36:58.935Z,16
2023-03-29T16:38:15.177Z,16
2023-03-29T16:39:31.410Z,16
2023-03-29T16:40:47.649Z,16
2023-03-29T16:42:02.906Z,16
2023-03-29T16:43:19.148Z,16
2023-03-29T16:44:35.400Z,16
2023-03-29T16:45:51.631Z,22
2023-03-29T16:47:07.866Z,22
2023-03-29T16:48:24.105Z,22
2023-03-29T16:49:40.352Z,22
2023-03-29T16:50:56.591Z,22
2023-03-29T16:52:12.839Z,16
2023-03-29T16:53:29.067Z,16
2023-03-29T16:54:45.311Z,16
2023-03-29T16:56:01.550Z,11
2023-03-29T16:57:17.785Z,11
2023-03-29T16:58:33.041Z,11
2023-03-29T16:59:49.295Z,11
2023-03-29T17:01:05.526Z,11
2023-03-29T17:02:21.773Z,11
2023-03-29T17:03:38.000Z,11
2023-03-29T17:04:54.245Z,11
2023-03-29T17:06:10.489Z,11
2023-03-29T17:07:26.721Z,11
2023-03-29T17:08:42.975Z,11
2023-03-29T17:09:59.205Z,11
2023-03-29T17:11:15.450Z,5
2023-03-29T17:12:31.683Z,5
2023-03-29T17:13:47.922Z,5
2023-03-29T17:15:03.187Z,5
2023-03-29T17:16:19.417Z,5
2023-03-29T17:17:35.657Z,5
2023-03-29T17:18:51.902Z,5
2023-03-29T17:20:08.137Z,5
2023-03-29T17:21:24.389Z,5
2023-03-29T17:22:40.617Z,5
2023-03-29T17:23:56.868Z,0
2023-03-29T17:25:13.104Z,0
2023-03-29T17:26:29.341Z,0
2023-03-29T17:27:45.583Z,0
2023-03-29T17:29:01.815Z,0
2023-03-29T17:30:18.071Z,0
2023-03-29T17:31:33.316Z,0
2023-03-29T17:32:49.555Z,0
2023-03-29T17:34:05.793Z,0
2023-03-29T17:35:22.045Z,0
2023-03-29T17:36:38.278Z,0
2023-03-29T17:37:54.514Z,0
2023-03-29T17:39:09.784Z,0
2023-03-29T17:40:26.013Z,0
2023-03-29T17:41:42.252Z,0
2023-03-29T17:42:58.488Z,0
2023-03-29T17:44:14.735Z,0
2023-03-29T17:45:30.982Z,0
2023-03-29T17:46:47.231Z,0
2023-03-29T17:48:03.458Z,0
2023-03-29T17:49:19.694Z,0
2023-03-29T17:50:35.938Z,0
2023-03-29T17:51:52.172Z,0
2023-03-29T17:53:08.416Z,0
2023-03-29T17:54:24.656Z,0
2023-03-29T17:55:39.907Z,0
2023-03-29T17:56:56.150Z,0
2023-03-29T17:58:12.397Z,0
2023-03-29T17:59:28.632Z,0
2023-03-29T18:00:44.877Z,0
2023-03-29T18:02:01.108Z,0
2023-03-29T18:03:17.361Z,0
2023-03-29T18:04:33.649Z,0